createdAt,value
2019-05-18T00:02:13.015Z,100228.66
2019-05-18T00:04:44.000Z,100229.57
2019-05-18T00:07:14.999Z,100233.58
2019-05-18T00:09:45.973Z,100233.21
2019-05-18T00:12:16.993Z,100227.52
2019-05-18T00:14:47.942Z,100227.52
2019-05-18T00:17:25.412Z,100225.78
2019-05-18T00:19:51.987Z,100232.88
2019-05-18T00:22:22.955Z,100230.66
2019-05-18T00:24:55.018Z,100229.39
2019-05-18T00:27:26.071Z,100239.64
2019-05-18T00:29:57.050Z,100233.94
2019-05-18T00:32:28.026Z,100226.87
2019-05-18T00:34:59.024Z,100231.33
2019-05-18T00:37:29.995Z,100228.23
2019-05-18T00:40:01.557Z,100229.63
2019-05-18T00:42:32.563Z,100228.78
2019-05-18T00:45:04.504Z,100231.00
2019-05-18T00:47:41.360Z,100230.20
2019-05-18T00:50:09.102Z,100227.54
2019-05-18T00:52:40.087Z,100233.78
2019-05-18T00:55:11.252Z,100226.78
2019-05-18T00:57:42.527Z,100227.23
2019-05-18T01:00:14.080Z,100226.87
2019-05-18T01:02:45.088Z,100221.53
2019-05-18T01:05:16.329Z,100221.59
2019-05-18T01:07:48.296Z,100224.26
2019-05-18T01:10:19.368Z,100222.11
2019-05-18T01:12:50.370Z,100225.69
2019-05-18T01:15:21.732Z,100224.38
2019-05-18T01:17:57.573Z,100216.02
2019-05-18T01:20:25.406Z,100219.13
2019-05-18T01:22:56.412Z,100213.44
2019-05-18T01:25:27.845Z,100217.01
2019-05-18T01:27:58.833Z,100212.61
2019-05-18T01:30:29.811Z,100215.34
2019-05-18T01:33:00.782Z,100211.81
2019-05-18T01:35:31.783Z,100210.05
2019-05-18T01:38:02.773Z,100215.39
2019-05-18T01:40:33.772Z,100216.72
2019-05-18T01:43:04.774Z,100219.39
2019-05-18T01:45:35.744Z,100207.48
2019-05-18T01:48:14.179Z,100202.15
2019-05-18T01:50:39.886Z,100211.05
2019-05-18T01:53:10.905Z,100203.14
2019-05-18T01:55:41.879Z,100208.05
2019-05-18T01:58:12.885Z,100207.66
2019-05-18T02:00:43.853Z,100212.50
2019-05-18T02:03:14.852Z,100205.92
2019-05-18T02:05:45.859Z,100200.62
2019-05-18T02:08:16.838Z,100194.44
2019-05-18T02:10:47.814Z,100202.46
2019-05-18T02:13:18.841Z,100194.92
2019-05-18T02:15:49.820Z,100199.37
2019-05-18T02:18:29.194Z,100198.55
2019-05-18T02:20:55.078Z,100193.61
2019-05-18T02:23:26.103Z,100199.88
2019-05-18T02:25:57.083Z,100200.79
2019-05-18T02:28:28.143Z,100197.24
2019-05-18T02:30:59.114Z,100200.84
2019-05-18T02:33:30.119Z,100203.50
2019-05-18T02:36:01.534Z,100199.56
2019-05-18T02:38:32.530Z,100200.92
2019-05-18T02:41:03.504Z,100198.77
2019-05-18T02:43:34.587Z,100185.93
2019-05-18T02:46:05.913Z,100189.50
2019-05-18T02:48:48.820Z,100192.22
2019-05-18T02:51:11.680Z,100194.94
2019-05-18T02:53:42.292Z,100195.91
2019-05-18T02:56:13.262Z,100189.72
2019-05-18T02:58:44.241Z,100198.22
2019-05-18T03:01:15.210Z,100190.70
2019-05-18T03:03:46.195Z,100192.94
2019-05-18T03:06:17.164Z,100197.45
2019-05-18T03:08:48.142Z,100203.25
2019-05-18T03:11:19.157Z,100202.43
2019-05-18T03:13:50.084Z,100200.22
2019-05-18T03:16:21.056Z,100199.81
2019-05-18T03:19:06.716Z,100201.23
2019-05-18T03:21:24.712Z,100194.20
2019-05-18T03:23:55.696Z,100196.42
2019-05-18T03:26:26.674Z,100197.38
2019-05-18T03:28:57.658Z,100197.86
2019-05-18T03:31:28.624Z,100204.97
2019-05-18T03:33:59.624Z,100197.91
2019-05-18T03:36:30.671Z,100203.72
2019-05-18T03:39:01.675Z,100203.28
2019-05-18T03:41:32.700Z,100196.23
2019-05-18T03:44:03.763Z,100198.02
2019-05-18T03:46:34.734Z,100202.03
2019-05-18T03:49:05.818Z,100206.48
2019-05-18T03:51:36.805Z,100210.02
2019-05-18T03:54:07.788Z,100207.81
2019-05-18T03:56:38.792Z,100205.59
2019-05-18T03:59:09.764Z,100207.38
2019-05-18T04:01:41.108Z,100200.27
2019-05-18T04:04:12.098Z,100198.52
2019-05-18T04:06:43.078Z,100204.72
2019-05-18T04:09:14.060Z,100198.12
2019-05-18T04:11:45.064Z,100193.67
2019-05-18T04:14:16.082Z,100208.72
2019-05-18T04:16:47.080Z,100208.72
2019-05-18T04:19:18.054Z,100204.70
2019-05-18T04:21:49.046Z,100211.33
2019-05-18T04:24:20.005Z,100204.67
2019-05-18T04:26:50.999Z,100207.28
2019-05-18T04:29:21.997Z,100212.58
2019-05-18T04:31:52.984Z,100210.30
2019-05-18T04:34:23.966Z,100212.05
2019-05-18T04:36:54.947Z,100213.34
2019-05-18T04:39:25.942Z,100215.53
2019-05-18T04:41:56.908Z,100209.67
2019-05-18T04:44:27.912Z,100215.85
2019-05-18T04:46:58.873Z,100209.56
2019-05-18T04:49:29.870Z,100206.37
2019-05-18T04:52:00.863Z,100201.45
2019-05-18T04:54:31.853Z,100205.36
2019-05-18T04:57:02.832Z,100205.31
2019-05-18T04:59:33.818Z,100205.20
2019-05-18T05:02:04.806Z,100201.06
2019-05-18T05:04:35.813Z,100210.77
2019-05-18T05:07:06.751Z,100207.11
2019-05-18T05:09:37.733Z,100207.00
2019-05-18T05:12:08.749Z,100208.22
2019-05-18T05:14:39.746Z,100204.50
2019-05-18T05:17:10.753Z,100206.14
2019-05-18T05:19:41.760Z,100210.43
2019-05-18T05:22:12.740Z,100205.34
2019-05-18T05:24:43.721Z,100205.59
2019-05-18T05:27:14.713Z,100196.56
2019-05-18T05:29:45.685Z,100194.20
2019-05-18T05:32:16.665Z,100197.17
2019-05-18T05:34:47.655Z,100197.44
2019-05-18T05:37:18.633Z,100189.31
2019-05-18T05:39:49.619Z,100195.89
2019-05-18T05:42:20.890Z,100199.28
2019-05-18T05:44:51.864Z,100189.81
2019-05-18T05:47:22.844Z,100196.27
2019-05-18T05:49:53.995Z,100196.98
2019-05-18T05:52:24.977Z,100201.67
2019-05-18T05:54:55.991Z,100195.29
2019-05-18T05:57:26.965Z,100196.36
2019-05-18T05:59:57.949Z,100196.65
2019-05-18T06:02:28.917Z,100189.37
2019-05-18T06:04:59.921Z,100188.30
2019-05-18T06:07:30.947Z,100188.12
2019-05-18T06:10:01.920Z,100196.34
2019-05-18T06:12:32.934Z,100187.73
2019-05-18T06:15:05.646Z,100186.72
2019-05-18T06:17:36.624Z,100189.67
2019-05-18T06:20:08.819Z,100186.86
2019-05-18T06:22:39.818Z,100187.09
2019-05-18T06:25:11.472Z,100184.13
2019-05-18T06:27:42.438Z,100183.45
2019-05-18T06:30:15.191Z,100192.58
2019-05-18T06:32:46.168Z,100187.86
2019-05-18T06:35:17.175Z,100186.78
2019-05-18T06:37:48.140Z,100195.84
2019-05-18T06:40:19.162Z,100194.23
2019-05-18T06:42:50.142Z,100194.80
2019-05-18T06:45:21.279Z,100188.80
2019-05-18T06:47:52.266Z,100191.66
2019-05-18T06:50:29.590Z,100194.47
2019-05-18T06:53:00.847Z,100193.80
2019-05-18T06:55:32.222Z,100193.52
2019-05-18T06:58:03.252Z,100190.67
2019-05-18T07:00:34.253Z,100200.63
2019-05-18T07:03:05.312Z,100206.66
2019-05-18T07:05:36.314Z,100201.06
2019-05-18T07:08:07.330Z,100198.67
2019-05-18T07:10:38.334Z,100196.70
2019-05-18T07:13:09.339Z,100196.11
2019-05-18T07:15:42.190Z,100196.91
2019-05-18T07:18:14.146Z,100196.36
2019-05-18T07:20:45.129Z,100205.23
2019-05-18T07:23:16.125Z,100208.20
2019-05-18T07:25:47.106Z,100201.20
2019-05-18T07:28:18.082Z,100201.86
2019-05-18T07:30:49.115Z,100198.63
2019-05-18T07:33:20.092Z,100203.99
2019-05-18T07:35:51.082Z,100201.73
2019-05-18T07:38:22.072Z,100202.84
2019-05-18T07:40:53.051Z,100203.59
2019-05-18T07:43:24.045Z,100204.00
2019-05-18T07:45:55.005Z,100207.05
2019-05-18T07:48:25.981Z,100205.66
2019-05-18T07:50:56.953Z,100209.19
2019-05-18T07:53:27.936Z,100207.75
2019-05-18T07:55:58.932Z,100205.36
2019-05-18T07:58:29.936Z,100195.25
2019-05-18T08:01:01.588Z,100207.41
2019-05-18T08:03:35.514Z,100205.04
2019-05-18T08:06:06.499Z,100202.09
2019-05-18T08:08:37.466Z,100204.95
2019-05-18T08:11:08.452Z,100200.14
2019-05-18T08:13:39.427Z,100200.75
2019-05-18T08:16:10.393Z,100211.75
2019-05-18T08:18:41.374Z,100206.61
2019-05-18T08:21:12.361Z,100200.07
2019-05-18T08:23:43.353Z,100196.13
2019-05-18T08:26:14.327Z,100193.00
2019-05-18T08:28:45.309Z,100197.30
2019-05-18T08:31:16.292Z,100199.78
2019-05-18T08:33:47.299Z,100191.20
2019-05-18T08:36:18.294Z,100191.42
2019-05-18T08:38:49.270Z,100193.14
2019-05-18T08:41:21.135Z,100192.67
2019-05-18T08:43:52.106Z,100193.03
2019-05-18T08:46:23.078Z,100195.71
2019-05-18T08:48:54.073Z,100191.69
2019-05-18T08:51:25.029Z,100188.86
2019-05-18T08:53:56.001Z,100186.33
2019-05-18T08:56:26.984Z,100185.41
2019-05-18T08:58:57.961Z,100192.48
2019-05-18T09:01:28.921Z,100185.61
2019-05-18T09:03:59.938Z,100189.41
2019-05-18T09:06:30.977Z,100186.65
2019-05-18T09:09:01.965Z,100189.78
2019-05-18T09:11:32.940Z,100187.13
2019-05-18T09:14:03.916Z,100191.75
2019-05-18T09:16:34.928Z,100187.15
2019-05-18T09:19:06.040Z,100177.26
2019-05-18T09:21:36.992Z,100173.74
2019-05-18T09:24:07.978Z,100171.41
2019-05-18T09:26:39.151Z,100175.69
2019-05-18T09:29:10.241Z,100175.80
2019-05-18T09:31:41.381Z,100172.94
2019-05-18T09:34:12.376Z,100171.05
2019-05-18T09:36:43.371Z,100169.85
2019-05-18T09:39:14.387Z,100166.23
2019-05-18T09:41:45.382Z,100164.78
2019-05-18T09:44:16.352Z,100166.13
2019-05-18T09:46:47.384Z,100165.11
2019-05-18T09:49:19.426Z,100167.46
2019-05-18T09:51:50.475Z,100159.30
2019-05-18T09:54:21.444Z,100166.04
2019-05-18T09:56:52.441Z,100164.52
2019-05-18T09:59:23.413Z,100162.37
2019-05-18T10:01:54.374Z,100157.61
2019-05-18T10:04:25.360Z,100162.58
2019-05-18T10:06:56.332Z,100158.50
2019-05-18T10:09:37.035Z,100154.75
2019-05-18T10:12:00.019Z,100158.10
2019-05-18T10:14:31.044Z,100155.18
2019-05-18T10:17:02.038Z,100159.08
2019-05-18T10:19:33.018Z,100159.69
2019-05-18T10:22:03.989Z,100156.98
2019-05-18T10:24:34.975Z,100156.02
2019-05-18T10:27:05.948Z,100144.79
2019-05-18T10:29:37.187Z,100142.46
2019-05-18T10:32:08.534Z,100153.57
2019-05-18T10:34:41.160Z,100145.37
2019-05-18T10:37:12.178Z,100150.91
2019-05-18T10:39:43.139Z,100149.37
2019-05-18T10:42:14.128Z,100149.51
2019-05-18T10:44:45.095Z,100140.28
2019-05-18T10:47:16.089Z,100140.89
2019-05-18T10:49:48.147Z,100133.00
2019-05-18T10:52:19.121Z,100127.45
2019-05-18T10:54:50.091Z,100130.36
2019-05-18T10:57:21.086Z,100134.61
2019-05-18T10:59:52.049Z,100129.50
2019-05-18T11:02:23.039Z,100134.23
2019-05-18T11:04:54.017Z,100123.17
2019-05-18T11:07:25.022Z,100119.83
2019-05-18T11:09:55.998Z,100114.64
2019-05-18T11:12:26.982Z,100116.66
2019-05-18T11:14:57.957Z,100117.38
2019-05-18T11:17:28.947Z,100107.73
2019-05-18T11:20:01.387Z,100112.38
2019-05-18T11:22:32.416Z,100108.05
2019-05-18T11:25:03.783Z,100118.97
2019-05-18T11:27:34.747Z,100120.52
2019-05-18T11:30:10.792Z,100121.67
2019-05-18T11:32:42.792Z,100110.59
2019-05-18T11:35:14.096Z,100110.91
2019-05-18T11:37:45.081Z,100111.89
2019-05-18T11:40:16.347Z,100120.55
2019-05-18T11:42:47.347Z,100108.50
2019-05-18T11:45:19.523Z,100112.47
2019-05-18T11:47:50.503Z,100115.95
2019-05-18T11:50:21.944Z,100119.45
2019-05-18T11:52:52.907Z,100111.84
2019-05-18T11:55:23.883Z,100114.44
2019-05-18T11:57:54.865Z,100115.38
2019-05-18T12:00:26.047Z,100107.28
2019-05-18T12:02:57.080Z,100118.08
2019-05-18T12:05:28.073Z,100115.20
2019-05-18T12:07:59.056Z,100118.08
2019-05-18T12:10:30.021Z,100111.50
2019-05-18T12:13:01.558Z,100111.30
2019-05-18T12:15:32.895Z,100117.58
2019-05-18T12:18:03.870Z,100113.91
2019-05-18T12:20:34.937Z,100115.53
2019-05-18T12:23:08.232Z,100114.36
2019-05-18T12:25:38.580Z,100117.19
2019-05-18T12:28:09.575Z,100108.98
2019-05-18T12:30:41.005Z,100118.63
2019-05-18T12:33:11.972Z,100117.67
2019-05-18T12:35:43.112Z,100112.52
2019-05-18T12:38:14.093Z,100109.61
2019-05-18T12:40:45.067Z,100114.32
2019-05-18T12:43:16.028Z,100115.37
2019-05-18T12:45:47.000Z,100120.12
2019-05-18T12:48:17.966Z,100110.82
2019-05-18T12:50:48.946Z,100112.34
2019-05-18T12:53:19.915Z,100106.72
2019-05-18T12:55:50.916Z,100107.86
2019-05-18T12:58:21.887Z,100099.94
2019-05-18T13:00:52.868Z,100098.84
2019-05-18T13:03:24.915Z,100089.16
2019-05-18T13:05:55.897Z,100094.25
2019-05-18T13:08:26.884Z,100092.40
2019-05-18T13:10:57.859Z,100096.44
2019-05-18T13:13:28.823Z,100088.39
2019-05-18T13:15:59.786Z,100090.07
2019-05-18T13:18:30.760Z,100093.72
2019-05-18T13:21:01.734Z,100090.88
2019-05-18T13:23:32.739Z,100093.75
2019-05-18T13:26:03.708Z,100085.30
2019-05-18T13:28:34.693Z,100086.23
2019-05-18T13:31:05.669Z,100093.95
2019-05-18T13:33:36.649Z,100083.63
2019-05-18T13:36:07.623Z,100078.39
2019-05-18T13:38:40.252Z,100089.97
2019-05-18T13:41:11.238Z,100083.13
2019-05-18T13:43:42.208Z,100088.05
2019-05-18T13:46:18.396Z,100085.34
2019-05-18T13:48:50.453Z,100082.62
2019-05-18T13:51:21.420Z,100076.10
2019-05-18T13:53:52.384Z,100072.30
2019-05-18T13:56:23.382Z,100075.06
2019-05-18T13:58:54.420Z,100076.70
2019-05-18T14:01:25.387Z,100078.22
2019-05-18T14:03:56.354Z,100074.41
2019-05-18T14:06:27.328Z,100074.88
2019-05-18T14:08:58.313Z,100082.69
2019-05-18T14:11:29.284Z,100082.84
2019-05-18T14:14:00.284Z,100079.31
2019-05-18T14:16:31.225Z,100074.39
2019-05-18T14:19:02.495Z,100079.77
2019-05-18T14:21:33.479Z,100074.10
2019-05-18T14:24:04.492Z,100068.83
2019-05-18T14:26:35.487Z,100069.84
2019-05-18T14:29:06.464Z,100075.17
2019-05-18T14:31:37.427Z,100067.41
2019-05-18T14:34:08.397Z,100071.69
2019-05-18T14:36:39.351Z,100068.73
2019-05-18T14:39:10.336Z,100063.40
2019-05-18T14:41:42.622Z,100071.54
2019-05-18T14:44:13.678Z,100071.39
2019-05-18T14:46:44.650Z,100071.34
2019-05-18T14:49:15.614Z,100067.02
2019-05-18T14:51:46.605Z,100063.55
2019-05-18T14:54:17.561Z,100068.13
2019-05-18T14:56:48.530Z,100070.55
2019-05-18T14:59:19.503Z,100064.39
2019-05-18T15:01:50.494Z,100059.17
2019-05-18T15:04:21.456Z,100058.44
2019-05-18T15:06:52.459Z,100064.83
2019-05-18T15:09:23.449Z,100062.34
2019-05-18T15:11:54.422Z,100059.35
2019-05-18T15:14:25.397Z,100054.65
2019-05-18T15:16:56.405Z,100057.45
2019-05-18T15:19:27.395Z,100055.84
2019-05-18T15:21:58.363Z,100053.05
2019-05-18T15:24:29.337Z,100057.73
2019-05-18T15:27:01.508Z,100048.58
2019-05-18T15:29:32.500Z,100052.68
2019-05-18T15:32:03.466Z,100053.23
2019-05-18T15:34:34.465Z,100053.11
2019-05-18T15:37:05.443Z,100051.38
2019-05-18T15:39:36.427Z,100050.88
2019-05-18T15:42:07.468Z,100049.75
2019-05-18T15:44:41.087Z,100042.06
2019-05-18T15:47:11.126Z,100040.06
2019-05-18T15:49:43.200Z,100033.97
2019-05-18T15:52:14.166Z,100042.31
2019-05-18T15:54:45.160Z,100044.05
2019-05-18T15:57:16.120Z,100043.18
2019-05-18T15:59:48.185Z,100043.09
2019-05-18T16:02:19.155Z,100042.70
2019-05-18T16:04:50.154Z,100047.34
2019-05-18T16:07:21.416Z,100042.88
2019-05-18T16:09:52.468Z,100043.27
2019-05-18T16:12:23.430Z,100047.81
2019-05-18T16:14:54.435Z,100043.88
2019-05-18T16:17:38.457Z,100038.66
2019-05-18T16:19:59.633Z,100039.66
2019-05-18T16:22:31.692Z,100037.13
2019-05-18T16:25:02.649Z,100044.34
2019-05-18T16:27:33.634Z,100038.62
2019-05-18T16:30:07.944Z,100043.30
2019-05-18T16:32:38.912Z,100043.78
2019-05-18T16:35:11.221Z,100036.23
2019-05-18T16:37:42.920Z,100031.78
2019-05-18T16:40:14.241Z,100028.59
2019-05-18T16:42:46.717Z,100025.53
2019-05-18T16:45:18.231Z,100032.30
2019-05-18T16:47:49.493Z,100035.01
2019-05-18T16:50:20.645Z,100029.69
2019-05-18T16:52:51.640Z,100030.08
2019-05-18T16:55:22.591Z,100027.94
2019-05-18T16:57:53.559Z,100027.08
2019-05-18T17:00:27.340Z,100023.63
2019-05-18T17:02:58.347Z,100025.45
2019-05-18T17:05:29.317Z,100021.00
2019-05-18T17:08:00.289Z,100030.22
2019-05-18T17:10:31.256Z,100031.66
2019-05-18T17:13:02.241Z,100031.27
2019-05-18T17:15:33.219Z,100023.54
2019-05-18T17:18:04.181Z,100028.47
2019-05-18T17:20:35.165Z,100023.54
2019-05-18T17:23:06.097Z,100023.15
2019-05-18T17:25:37.144Z,100025.86
2019-05-18T17:28:08.116Z,100024.98
2019-05-18T17:30:42.477Z,100025.11
2019-05-18T17:33:11.773Z,100026.47
2019-05-18T17:35:57.980Z,100028.88
2019-05-18T17:38:15.428Z,100033.89
2019-05-18T17:40:46.390Z,100032.63
2019-05-18T17:43:17.758Z,100030.50
2019-05-18T17:45:49.789Z,100030.63
2019-05-18T17:48:20.775Z,100030.32
2019-05-18T17:50:52.808Z,100029.57
2019-05-18T17:53:23.783Z,100036.91
2019-05-18T17:55:55.821Z,100043.28
2019-05-18T17:58:26.802Z,100035.38
2019-05-18T18:00:58.873Z,100042.23
2019-05-18T18:03:30.913Z,100043.31
2019-05-18T18:06:02.962Z,100043.88
2019-05-18T18:08:34.600Z,100048.55
2019-05-18T18:11:05.578Z,100045.45
2019-05-18T18:13:36.548Z,100052.20
2019-05-18T18:16:07.585Z,100051.42
2019-05-18T18:18:38.587Z,100049.80
2019-05-18T18:21:09.566Z,100041.91
2019-05-18T18:23:40.588Z,100042.95
2019-05-18T18:26:11.544Z,100052.62
2019-05-18T18:28:42.528Z,100052.05
2019-05-18T18:31:13.762Z,100055.84
2019-05-18T18:33:44.773Z,100060.55
2019-05-18T18:36:15.715Z,100059.88
2019-05-18T18:38:47.763Z,100057.87
2019-05-18T18:41:18.732Z,100056.33
2019-05-18T18:43:49.721Z,100050.74
2019-05-18T18:46:20.691Z,100059.42
2019-05-18T18:48:51.683Z,100052.44
2019-05-18T18:51:22.664Z,100050.81
2019-05-18T18:53:53.627Z,100053.81
2019-05-18T18:56:24.622Z,100052.27
2019-05-18T18:58:55.588Z,100053.91
2019-05-18T19:01:26.559Z,100056.11
2019-05-18T19:03:57.555Z,100061.41
2019-05-18T19:06:28.588Z,100060.94
2019-05-18T19:08:59.555Z,100062.66
2019-05-18T19:11:30.531Z,100063.89
2019-05-18T19:14:02.154Z,100062.07
2019-05-18T19:16:33.118Z,100066.48
2019-05-18T19:19:04.125Z,100066.48
2019-05-18T19:21:35.113Z,100068.55
2019-05-18T19:24:06.996Z,100077.59
2019-05-18T19:26:37.979Z,100074.30
2019-05-18T19:29:08.976Z,100073.78
2019-05-18T19:31:39.944Z,100076.00
2019-05-18T19:34:10.953Z,100080.31
2019-05-18T19:36:41.925Z,100081.06
2019-05-18T19:39:12.890Z,100084.10
2019-05-18T19:41:43.969Z,100093.45
2019-05-18T19:44:14.933Z,100093.31
2019-05-18T19:46:45.931Z,100098.17
2019-05-18T19:49:16.921Z,100102.20
2019-05-18T19:51:47.906Z,100092.70
2019-05-18T19:54:18.892Z,100098.35
2019-05-18T19:56:50.394Z,100097.73
2019-05-18T19:59:21.454Z,100098.95
2019-05-18T20:01:52.422Z,100101.50
2019-05-18T20:04:23.481Z,100097.71
2019-05-18T20:06:54.465Z,100099.79
2019-05-18T20:09:25.461Z,100103.24
2019-05-18T20:11:56.434Z,100102.15
2019-05-18T20:14:27.431Z,100098.73
2019-05-18T20:16:58.417Z,100101.37
2019-05-18T20:19:38.658Z,100097.12
2019-05-18T20:22:04.843Z,100106.80
2019-05-18T20:24:35.839Z,100107.45
2019-05-18T20:27:06.805Z,100100.96
2019-05-18T20:29:37.775Z,100102.52
2019-05-18T20:32:08.764Z,100108.92
2019-05-18T20:34:39.767Z,100107.83
2019-05-18T20:37:10.743Z,100102.78
2019-05-18T20:39:41.994Z,100101.98
2019-05-18T20:42:12.985Z,100102.30
2019-05-18T20:44:44.233Z,100099.00
2019-05-18T20:47:15.201Z,100096.55
2019-05-18T20:49:46.856Z,100103.89
2019-05-18T20:52:17.833Z,100101.84
2019-05-18T20:54:48.829Z,100101.20
2019-05-18T20:57:21.466Z,100107.23
2019-05-18T20:59:52.453Z,100104.31
2019-05-18T21:02:24.729Z,100105.42
2019-05-18T21:04:55.704Z,100105.19
2019-05-18T21:07:26.678Z,100104.55
2019-05-18T21:09:57.659Z,100108.27
2019-05-18T21:12:28.660Z,100098.69
2019-05-18T21:14:59.625Z,100109.55
2019-05-18T21:17:30.577Z,100102.22
2019-05-18T21:20:01.573Z,100105.98
2019-05-18T21:22:32.549Z,100111.99
2019-05-18T21:25:03.955Z,100108.59
2019-05-18T21:27:34.913Z,100113.26
2019-05-18T21:30:07.621Z,100108.05
2019-05-18T21:32:38.603Z,100114.99
2019-05-18T21:35:09.622Z,100113.00
2019-05-18T21:37:40.594Z,100105.06
2019-05-18T21:40:12.525Z,100111.00
2019-05-18T21:42:43.551Z,100110.77
2019-05-18T21:45:15.841Z,100114.55
2019-05-18T21:48:06.352Z,100118.70
2019-05-18T21:50:37.494Z,100117.11
2019-05-18T21:53:08.450Z,100116.09
2019-05-18T21:55:39.415Z,100110.84
2019-05-18T21:58:12.276Z,100113.68
2019-05-18T22:00:43.657Z,100113.84
2019-05-18T22:03:14.610Z,100118.96
2019-05-18T22:05:45.577Z,100115.52
2019-05-18T22:08:16.558Z,100115.21
2019-05-18T22:10:47.523Z,100110.95
2019-05-18T22:13:18.483Z,100110.70
2019-05-18T22:15:49.452Z,100116.60
2019-05-18T22:18:24.582Z,100115.88
2019-05-18T22:20:53.080Z,100114.22
2019-05-18T22:23:24.032Z,100113.50
2019-05-18T22:25:57.018Z,100114.59
2019-05-18T22:28:27.673Z,100116.46
2019-05-18T22:30:58.629Z,100111.30
2019-05-18T22:33:29.591Z,100112.33
2019-05-18T22:36:00.558Z,100113.79
2019-05-18T22:38:31.566Z,100116.62
2019-05-18T22:41:02.488Z,100115.90
2019-05-18T22:43:33.540Z,100108.05
2019-05-18T22:46:04.465Z,100113.95
2019-05-18T22:48:41.237Z,100109.66
2019-05-18T22:51:08.099Z,100104.03
2019-05-18T22:53:39.069Z,100098.41
2019-05-18T22:56:10.028Z,100099.48
2019-05-18T22:58:40.994Z,100098.66
2019-05-18T23:01:11.946Z,100094.37
2019-05-18T23:03:43.883Z,100095.41
2019-05-18T23:06:14.854Z,100094.58
2019-05-18T23:08:45.815Z,100092.92
2019-05-18T23:11:16.803Z,100098.41
2019-05-18T23:13:47.806Z,100097.17
2019-05-18T23:16:18.776Z,100096.44
2019-05-18T23:18:56.907Z,100101.08
2019-05-18T23:21:22.471Z,100101.19
2019-05-18T23:23:53.510Z,100105.35
2019-05-18T23:26:24.525Z,100105.91
2019-05-18T23:28:55.517Z,100101.12
2019-05-18T23:31:26.502Z,100102.13
2019-05-18T23:33:58.557Z,100103.62
2019-05-18T23:36:29.536Z,100098.36
2019-05-18T23:39:00.502Z,100090.92
2019-05-18T23:41:31.541Z,100099.58
2019-05-18T23:44:02.506Z,100089.92
2019-05-18T23:46:33.502Z,100089.65
2019-05-18T23:49:10.821Z,100090.58
2019-05-18T23:51:37.144Z,100088.83
2019-05-18T23:54:08.129Z,100081.80
2019-05-18T23:56:39.099Z,100093.45
2019-05-18T23:59:10.069Z,100092.72
